Time;durP1;ratioP1;P1;durP2;ratioP2;P2;SDS_P1;SDS_P2;PMS_P1;PMS_P2;Temp;Humidity;BMP_temperature;BMP_pressure;BME280_temperature;BME280_humidity;BME280_pressure;Samples;Min_cycle;Max_cycle;Signal;HPM_P1;HPM_P2
2024/02/12 00:01:45;;;;;;;;;;;22.70;41.20;;;;;;5073224;28;19991;-58
2024/02/12 00:04:14;;;;;;;;;;;22.80;41.20;;;;;;5073234;28;19924;-57
2024/02/12 00:06:43;;;;;;;;;;;22.70;41.20;;;;;;5073224;28;19934;-58
2024/02/12 00:09:12;;;;;;;;;;;22.70;41.70;;;;;;5073115;28;19924;-57
2024/02/12 00:11:43;;;;;;;;;;;22.70;41.20;;;;;;5073308;28;19928;-57
2024/02/12 00:14:10;;;;;;;;;;;22.70;41.20;;;;;;5073141;28;20359;-57
2024/02/12 00:16:40;;;;;;;;;;;22.70;41.20;;;;;;5073266;28;19966;-57
2024/02/12 00:19:08;;;;;;;;;;;22.70;41.30;;;;;;5072966;28;19994;-57
2024/02/12 00:21:36;;;;;;;;;;;22.70;41.30;;;;;;5073211;28;19933;-57
2024/02/12 00:24:03;;;;;;;;;;;22.70;41.30;;;;;;5072962;28;20011;-57
2024/02/12 00:26:32;;;;;;;;;;;22.70;41.30;;;;;;5072729;28;19932;-57
2024/02/12 00:29:01;;;;;;;;;;;22.70;41.30;;;;;;5073032;28;19972;-58
2024/02/12 00:31:28;;;;;;;;;;;22.70;41.40;;;;;;5074477;28;20019;-57
2024/02/12 00:33:55;;;;;;;;;;;22.60;41.30;;;;;;5076837;28;19924;-57
2024/02/12 00:36:23;;;;;;;;;;;22.70;41.40;;;;;;5077044;28;19955;-57
2024/02/12 00:38:50;;;;;;;;;;;22.70;41.40;;;;;;5076780;28;20352;-57
2024/02/12 00:41:20;;;;;;;;;;;22.70;41.40;;;;;;5076619;28;19925;-57
2024/02/12 00:43:49;;;;;;;;;;;22.60;41.40;;;;;;5076357;28;19925;-57
2024/02/12 00:46:17;;;;;;;;;;;22.60;41.30;;;;;;5076694;28;19975;-57
2024/02/12 00:48:45;;;;;;;;;;;22.60;41.30;;;;;;5076212;28;19974;-57
2024/02/12 00:51:13;;;;;;;;;;;22.60;41.30;;;;;;5076605;28;19924;-57
2024/02/12 00:53:41;;;;;;;;;;;22.70;41.40;;;;;;5075976;28;20289;-57
2024/02/12 00:56:09;;;;;;;;;;;22.70;41.30;;;;;;5076254;28;19928;-57
2024/02/12 00:58:36;;;;;;;;;;;22.70;41.30;;;;;;5076055;28;19947;-58
2024/02/12 01:01:04;;;;;;;;;;;22.70;41.30;;;;;;5076156;28;19925;-57
2024/02/12 01:03:32;;;;;;;;;;;22.70;41.30;;;;;;5075949;28;19972;-57
2024/02/12 01:05:59;;;;;;;;;;;22.70;41.30;;;;;;5076259;28;20344;-58
2024/02/12 01:08:26;;;;;;;;;;;22.70;41.30;;;;;;5075802;28;19931;-56
2024/02/12 01:10:53;;;;;;;;;;;22.70;41.30;;;;;;5076018;28;20018;-58
2024/02/12 01:13:21;;;;;;;;;;;22.70;41.30;;;;;;5075658;28;19933;-58
2024/02/12 01:15:49;;;;;;;;;;;22.70;41.30;;;;;;5075881;28;19924;-57
2024/02/12 01:18:16;;;;;;;;;;;22.60;41.30;;;;;;5075758;28;19928;-57
2024/02/12 01:20:44;;;;;;;;;;;22.60;41.30;;;;;;5075721;28;20285;-57
2024/02/12 01:23:15;;;;;;;;;;;22.60;41.30;;;;;;5075796;28;19925;-57
2024/02/12 01:25:43;;;;;;;;;;;22.60;41.30;;;;;;5075558;28;19929;-58
2024/02/12 01:28:10;;;;;;;;;;;22.60;41.30;;;;;;5075645;28;19924;-57
2024/02/12 01:30:37;;;;;;;;;;;22.60;41.30;;;;;;5075513;28;19931;-58
2024/02/12 01:33:06;;;;;;;;;;;22.60;41.30;;;;;;5075582;28;19956;-57
2024/02/12 01:35:34;;;;;;;;;;;22.60;41.30;;;;;;5075672;28;19924;-58
2024/02/12 01:38:01;;;;;;;;;;;22.60;41.30;;;;;;5075339;28;20038;-57
2024/02/12 01:40:28;;;;;;;;;;;22.60;41.40;;;;;;5075365;28;19924;-57
2024/02/12 01:42:55;;;;;;;;;;;22.60;41.40;;;;;;5074466;28;19924;-57
2024/02/12 01:45:26;;;;;;;;;;;22.60;41.40;;;;;;5075130;28;19928;-57
2024/02/12 01:48:02;;;;;;;;;;;22.60;41.40;;;;;;5075122;28;19925;-58
2024/02/12 01:50:31;;;;;;;;;;;22.60;41.40;;;;;;5075304;28;20370;-57
2024/02/12 01:53:00;;;;;;;;;;;22.60;41.40;;;;;;5074985;28;19925;-58
2024/02/12 01:55:29;;;;;;;;;;;22.60;41.40;;;;;;5075511;28;19925;-58
2024/02/12 01:57:56;;;;;;;;;;;22.60;41.50;;;;;;5057656;28;19924;-57
2024/02/12 02:00:26;;;;;;;;;;;22.60;41.50;;;;;;5075021;28;19979;-58
2024/02/12 02:02:56;;;;;;;;;;;22.60;41.50;;;;;;5075188;28;19924;-58
2024/02/12 02:05:25;;;;;;;;;;;22.60;41.50;;;;;;5075083;28;20041;-57
2024/02/12 02:07:56;;;;;;;;;;;22.60;41.40;;;;;;5074672;28;19925;-57
2024/02/12 02:10:24;;;;;;;;;;;22.60;41.40;;;;;;5074784;28;20027;-57
2024/02/12 02:12:53;;;;;;;;;;;22.60;41.40;;;;;;5074648;28;19934;-57
2024/02/12 02:15:20;;;;;;;;;;;22.60;41.40;;;;;;5074693;28;19977;-57
2024/02/12 02:17:47;;;;;;;;;;;22.60;41.40;;;;;;5074622;28;19932;-57
2024/02/12 02:20:16;;;;;;;;;;;22.60;41.40;;;;;;5074710;28;19924;-57
2024/02/12 02:22:43;;;;;;;;;;;22.60;41.30;;;;;;5074824;28;19983;-57
2024/02/12 02:25:11;;;;;;;;;;;22.60;41.40;;;;;;5074196;28;19978;-57
2024/02/12 02:27:38;;;;;;;;;;;22.60;41.30;;;;;;5074492;28;19978;-57
2024/02/12 02:30:07;;;;;;;;;;;22.60;41.30;;;;;;5074822;28;19924;-59
2024/02/12 02:32:36;;;;;;;;;;;22.60;41.40;;;;;;5074236;28;20011;-58
2024/02/12 02:35:07;;;;;;;;;;;22.60;41.40;;;;;;5074571;28;19925;-57
2024/02/12 02:37:35;;;;;;;;;;;22.60;41.40;;;;;;5089975;28;19924;-57
2024/02/12 02:40:03;;;;;;;;;;;22.60;41.40;;;;;;5074352;28;19977;-57
2024/02/12 02:42:31;;;;;;;;;;;22.60;41.40;;;;;;5056670;28;20408;-57
2024/02/12 02:44:58;;;;;;;;;;;22.60;41.40;;;;;;5074343;28;20316;-57
2024/02/12 02:47:25;;;;;;;;;;;22.60;41.40;;;;;;5074255;28;20022;-57
2024/02/12 02:49:52;;;;;;;;;;;22.60;41.40;;;;;;5073986;28;20019;-58
2024/02/12 02:52:19;;;;;;;;;;;22.60;41.40;;;;;;5074363;28;19931;-58
2024/02/12 02:54:47;;;;;;;;;;;22.60;41.40;;;;;;5073530;28;19928;-58
2024/02/12 02:57:15;;;;;;;;;;;22.60;41.40;;;;;;5073833;28;19928;-57
2024/02/12 02:59:42;;;;;;;;;;;22.60;41.50;;;;;;5074230;28;19925;-58
2024/02/12 03:02:12;;;;;;;;;;;22.50;41.40;;;;;;5073870;28;20393;-60
2024/02/12 03:04:42;;;;;;;;;;;22.60;41.50;;;;;;5073601;28;19971;-57
2024/02/12 03:07:10;;;;;;;;;;;22.60;41.50;;;;;;5074061;28;20301;-57
2024/02/12 03:09:37;;;;;;;;;;;22.50;41.40;;;;;;5073686;28;19924;-58
2024/02/12 03:12:05;;;;;;;;;;;22.60;41.50;;;;;;5073761;28;19925;-57
2024/02/12 03:14:33;;;;;;;;;;;22.60;41.50;;;;;;5073501;28;19986;-57
2024/02/12 03:17:00;;;;;;;;;;;22.50;41.50;;;;;;5073641;28;19924;-57
2024/02/12 03:19:28;;;;;;;;;;;22.60;41.50;;;;;;5073818;28;20289;-57
2024/02/12 03:21:55;;;;;;;;;;;22.60;41.50;;;;;;5073878;28;19963;-57
2024/02/12 03:24:21;;;;;;;;;;;22.60;41.50;;;;;;5073379;28;20381;-58
2024/02/12 03:26:50;;;;;;;;;;;22.60;41.50;;;;;;5073385;28;19936;-57
2024/02/12 03:29:21;;;;;;;;;;;22.60;41.50;;;;;;5073020;28;19994;-57
2024/02/12 03:31:48;;;;;;;;;;;22.60;41.50;;;;;;5073730;28;19930;-57
2024/02/12 03:34:15;;;;;;;;;;;22.60;41.50;;;;;;5072840;28;20370;-58
2024/02/12 03:36:43;;;;;;;;;;;22.60;41.40;;;;;;5073610;28;19929;-57
2024/02/12 03:39:10;;;;;;;;;;;22.50;41.40;;;;;;5073491;28;20342;-56
2024/02/12 03:41:38;;;;;;;;;;;22.60;41.40;;;;;;5073440;28;19924;-58
2024/02/12 03:44:06;;;;;;;;;;;22.60;41.40;;;;;;5073490;28;19986;-57
2024/02/12 03:46:38;;;;;;;;;;;22.60;41.40;;;;;;5073329;28;19929;-57
2024/02/12 04:00:16;;;;;;;;;;;22.60;41.50;;;;;;5073459;28;19924;-57
2024/02/12 04:02:44;;;;;;;;;;;22.60;41.50;;;;;;5073278;28;19982;-57
2024/02/12 04:05:12;;;;;;;;;;;22.50;41.40;;;;;;5072516;28;19928;-57
2024/02/12 04:07:39;;;;;;;;;;;22.50;41.50;;;;;;5076964;28;19932;-57
2024/02/12 04:10:07;;;;;;;;;;;22.50;41.50;;;;;;5077092;28;20018;-57
2024/02/12 04:12:34;;;;;;;;;;;22.50;41.50;;;;;;5077297;28;19978;-57
2024/02/12 04:15:01;;;;;;;;;;;22.50;41.50;;;;;;5077281;28;19928;-58
2024/02/12 04:17:28;;;;;;;;;;;22.50;41.50;;;;;;5077177;28;19925;-57
2024/02/12 04:19:55;;;;;;;;;;;22.50;41.60;;;;;;5077265;28;19925;-56
2024/02/12 04:22:26;;;;;;;;;;;22.50;41.50;;;;;;5077244;28;19924;-60
2024/02/12 04:24:54;;;;;;;;;;;22.50;41.50;;;;;;5076666;28;19993;-57
2024/02/12 04:27:22;;;;;;;;;;;22.50;41.60;;;;;;5059313;28;20021;-57
2024/02/12 04:29:51;;;;;;;;;;;22.50;41.60;;;;;;5076808;28;19924;-57
2024/02/12 04:32:18;;;;;;;;;;;22.50;41.60;;;;;;5076916;28;19933;-57
2024/02/12 04:34:45;;;;;;;;;;;22.50;41.60;;;;;;5076177;28;19929;-57
2024/02/12 04:37:12;;;;;;;;;;;22.50;41.50;;;;;;5074300;28;20455;-57
2024/02/12 04:39:39;;;;;;;;;;;22.50;41.40;;;;;;5075906;28;19924;-57
2024/02/12 04:42:06;;;;;;;;;;;22.50;41.30;;;;;;5076370;28;19925;-57
2024/02/12 04:44:33;;;;;;;;;;;22.50;41.10;;;;;;5073269;28;19924;-57
2024/02/12 04:47:02;;;;;;;;;;;22.60;41.10;;;;;;5065524;28;19925;-58
2024/02/12 04:49:29;;;;;;;;;;;22.60;41.00;;;;;;5056077;28;19932;-57
2024/02/12 04:51:56;;;;;;;;;;;22.60;40.80;;;;;;5075503;28;19925;-56
2024/02/12 04:54:23;;;;;;;;;;;22.60;40.80;;;;;;5076265;28;19925;-57
2024/02/12 04:56:50;;;;;;;;;;;22.60;40.70;;;;;;5076387;28;19978;-55
2024/02/12 04:59:21;;;;;;;;;;;22.60;40.60;;;;;;5074564;28;19932;-57
2024/02/12 05:01:48;;;;;;;;;;;22.60;40.50;;;;;;5076402;28;19929;-57
2024/02/12 05:04:15;;;;;;;;;;;22.60;40.60;;;;;;5075833;28;19924;-57
2024/02/12 05:06:43;;;;;;;;;;;22.60;40.50;;;;;;5075797;28;19972;-57
2024/02/12 05:09:10;;;;;;;;;;;22.60;40.50;;;;;;5075720;28;19924;-57
2024/02/12 05:11:37;;;;;;;;;;;22.60;40.50;;;;;;5057463;28;19925;-57
2024/02/12 05:14:04;;;;;;;;;;;22.60;40.40;;;;;;5075772;28;19931;-57
2024/02/12 05:16:34;;;;;;;;;;;22.60;40.30;;;;;;5076018;28;19970;-59
2024/02/12 05:24:36;;;;;;;;;;;22.60;40.30;;;;;;5075488;28;19975;-57
2024/02/12 05:27:03;;;;;;;;;;;22.60;40.20;;;;;;5057677;28;20316;-57
2024/02/12 05:29:30;;;;;;;;;;;22.60;40.20;;;;;;5075880;28;20356;-57
2024/02/12 05:31:58;;;;;;;;;;;22.70;40.30;;;;;;5075204;28;19932;-57
2024/02/12 05:34:25;;;;;;;;;;;22.60;40.20;;;;;;5075438;28;19925;-57
2024/02/12 05:36:53;;;;;;;;;;;22.60;40.30;;;;;;5073371;28;20404;-57
2024/02/12 05:39:21;;;;;;;;;;;22.60;40.30;;;;;;5071660;28;19928;-57
2024/02/12 05:41:48;;;;;;;;;;;22.60;40.30;;;;;;5073766;28;19967;-57
2024/02/12 05:44:15;;;;;;;;;;;22.60;40.30;;;;;;5075431;28;20015;-57
2024/02/12 05:46:42;;;;;;;;;;;22.60;40.30;;;;;;5075464;28;20385;-57
2024/02/12 05:49:13;;;;;;;;;;;22.60;40.20;;;;;;5073789;28;20005;-57
2024/02/12 05:51:44;;;;;;;;;;;22.60;40.20;;;;;;5074917;28;19935;-57
2024/02/12 05:54:12;;;;;;;;;;;22.60;40.20;;;;;;5074212;28;19928;-57
2024/02/12 05:56:39;;;;;;;;;;;22.70;40.20;;;;;;5075315;28;19925;-57
2024/02/12 05:59:09;;;;;;;;;;;22.70;40.20;;;;;;5074609;28;19933;-56
2024/02/12 06:01:37;;;;;;;;;;;22.70;40.10;;;;;;5073927;28;19925;-57
2024/02/12 06:04:03;;;;;;;;;;;22.70;40.10;;;;;;5073926;28;19925;-55
2024/02/12 06:06:30;;;;;;;;;;;22.70;40.10;;;;;;5073914;28;19925;-57
2024/02/12 06:08:58;;;;;;;;;;;22.70;40.10;;;;;;5074594;28;19924;-57
2024/02/12 06:11:25;;;;;;;;;;;22.70;40.10;;;;;;5073454;28;19928;-57
2024/02/12 06:13:52;;;;;;;;;;;22.70;40.00;;;;;;5074478;28;19928;-57
2024/02/12 06:16:19;;;;;;;;;;;22.70;40.00;;;;;;5074937;28;19924;-57
2024/02/12 06:18:46;;;;;;;;;;;22.70;40.10;;;;;;5073995;28;19959;-57
2024/02/12 06:21:14;;;;;;;;;;;22.70;40.00;;;;;;5073494;28;19997;-59
2024/02/12 06:23:41;;;;;;;;;;;22.70;40.00;;;;;;5069346;28;19924;-59
2024/02/12 06:26:08;;;;;;;;;;;22.80;40.00;;;;;;5054450;28;20432;-58
2024/02/12 06:28:36;;;;;;;;;;;22.70;40.10;;;;;;5068796;28;20401;-58
2024/02/12 06:31:03;;;;;;;;;;;22.80;40.20;;;;;;5067121;28;20263;-58
2024/02/12 06:33:30;;;;;;;;;;;22.80;40.30;;;;;;5066589;28;19933;-58
2024/02/12 06:36:01;;;;;;;;;;;22.80;40.30;;;;;;5059806;28;19925;-58
2024/02/12 06:38:29;;;;;;;;;;;22.80;40.50;;;;;;5045043;28;19932;-57
2024/02/12 06:40:56;;;;;;;;;;;22.80;40.60;;;;;;5053838;28;19932;-57
2024/02/12 06:43:25;;;;;;;;;;;22.80;40.60;;;;;;5038099;28;19939;-56
2024/02/12 06:45:53;;;;;;;;;;;22.80;40.60;;;;;;5039377;28;20009;-56
2024/02/12 06:48:19;;;;;;;;;;;22.80;40.60;;;;;;5066796;28;20443;-58
2024/02/12 06:50:47;;;;;;;;;;;22.80;40.50;;;;;;5069300;28;20393;-59
2024/02/12 06:53:14;;;;;;;;;;;22.80;40.50;;;;;;5069822;28;19936;-58
2024/02/12 06:55:41;;;;;;;;;;;22.80;40.40;;;;;;5067809;28;19931;-58
2024/02/12 06:58:09;;;;;;;;;;;22.90;40.30;;;;;;5057390;28;20181;-62
2024/02/12 07:00:37;;;;;;;;;;;22.90;40.30;;;;;;5054805;28;20027;-66
2024/02/12 07:03:05;;;;;;;;;;;22.90;40.20;;;;;;5033226;28;19929;-60
2024/02/12 07:05:32;;;;;;;;;;;22.90;40.20;;;;;;5059742;28;20005;-58
2024/02/12 07:07:59;;;;;;;;;;;22.90;40.30;;;;;;5053729;28;19932;-57
2024/02/12 07:10:27;;;;;;;;;;;23.00;40.40;;;;;;5060624;28;19932;-58
2024/02/12 07:12:54;;;;;;;;;;;23.00;40.50;;;;;;5057160;28;20055;-60
2024/02/12 07:15:21;;;;;;;;;;;23.00;40.50;;;;;;5059529;28;19932;-57
2024/02/12 07:17:48;;;;;;;;;;;23.00;40.60;;;;;;5052022;28;19939;-59
2024/02/12 07:20:16;;;;;;;;;;;23.00;40.60;;;;;;5058038;28;19924;-62
2024/02/12 07:22:43;;;;;;;;;;;23.00;40.70;;;;;;5060438;28;19928;-57
2024/02/12 07:25:10;;;;;;;;;;;23.00;40.90;;;;;;5064687;28;19933;-57
2024/02/12 07:27:37;;;;;;;;;;;23.00;41.40;;;;;;5059088;28;19928;-58
2024/02/12 07:30:07;;;;;;;;;;;23.00;41.60;;;;;;5068800;28;19951;-58
2024/02/12 07:32:37;;;;;;;;;;;23.10;41.50;;;;;;5061406;28;20386;-58
2024/02/12 07:35:06;;;;;;;;;;;23.10;41.30;;;;;;5066084;28;20019;-57
2024/02/12 07:37:33;;;;;;;;;;;23.10;41.20;;;;;;5065853;28;19932;-58
2024/02/12 07:40:03;;;;;;;;;;;23.10;41.10;;;;;;5061140;28;20027;-58
2024/02/12 07:42:30;;;;;;;;;;;23.10;41.10;;;;;;5064678;28;20439;-57
2024/02/12 07:44:58;;;;;;;;;;;23.10;41.10;;;;;;5062966;28;19928;-59
2024/02/12 07:47:25;;;;;;;;;;;23.10;41.10;;;;;;5064552;28;19951;-59
2024/02/12 07:49:52;;;;;;;;;;;23.10;41.10;;;;;;5064103;28;19928;-58
2024/02/12 07:52:20;;;;;;;;;;;23.20;41.10;;;;;;5060613;28;19932;-58
2024/02/12 07:54:46;;;;;;;;;;;23.20;41.10;;;;;;5068122;28;19928;-58
2024/02/12 07:57:13;;;;;;;;;;;23.20;41.10;;;;;;5064255;28;19938;-58
2024/02/12 07:59:40;;;;;;;;;;;23.30;41.70;;;;;;5067663;28;19966;-59
2024/02/12 08:02:08;;;;;;;;;;;23.30;41.10;;;;;;5050381;28;19979;-59
2024/02/12 08:04:35;;;;;;;;;;;23.30;41.00;;;;;;5066271;28;19924;-57
2024/02/12 08:07:04;;;;;;;;;;;23.30;41.00;;;;;;5065230;28;19979;-58
2024/02/12 08:09:35;;;;;;;;;;;23.30;41.00;;;;;;5064166;28;20015;-59
2024/02/12 08:12:05;;;;;;;;;;;23.30;41.00;;;;;;5060599;28;20434;-58
2024/02/12 08:14:36;;;;;;;;;;;23.40;40.90;;;;;;5056023;28;19951;-57
2024/02/12 08:17:04;;;;;;;;;;;23.40;40.90;;;;;;5058376;28;19935;-58
2024/02/12 08:19:31;;;;;;;;;;;23.40;41.00;;;;;;5062332;28;20333;-58
2024/02/12 08:21:58;;;;;;;;;;;23.40;40.90;;;;;;5065342;28;20049;-61
2024/02/12 08:24:26;;;;;;;;;;;23.40;41.10;;;;;;5062106;28;19928;-57
2024/02/12 08:26:53;;;;;;;;;;;23.40;41.20;;;;;;5066234;28;19935;-58
2024/02/12 08:29:20;;;;;;;;;;;23.50;41.30;;;;;;5060680;28;19936;-59
2024/02/12 08:31:47;;;;;;;;;;;23.50;41.30;;;;;;5067045;28;19963;-58
2024/02/12 08:34:15;;;;;;;;;;;23.50;41.10;;;;;;5064960;28;20381;-58
2024/02/12 08:36:45;;;;;;;;;;;23.50;41.00;;;;;;5062988;28;19932;-58
2024/02/12 08:39:15;;;;;;;;;;;23.50;40.90;;;;;;5062775;28;20385;-58
2024/02/12 08:41:47;;;;;;;;;;;23.50;40.90;;;;;;5064426;28;19940;-59
2024/02/12 08:44:15;;;;;;;;;;;23.50;41.00;;;;;;5057689;28;19928;-57
2024/02/12 08:46:44;;;;;;;;;;;23.50;41.10;;;;;;5060584;28;19929;-59
2024/02/12 08:49:12;;;;;;;;;;;23.50;41.10;;;;;;5062697;28;20258;-56
2024/02/12 08:51:39;;;;;;;;;;;23.60;41.20;;;;;;5066165;28;20289;-57
2024/02/12 08:54:06;;;;;;;;;;;23.60;41.20;;;;;;5064057;28;19925;-59
2024/02/12 08:56:36;;;;;;;;;;;23.60;41.20;;;;;;5068298;28;19925;-57
2024/02/12 08:59:06;;;;;;;;;;;23.60;41.20;;;;;;5072902;28;19947;-57
2024/02/12 09:01:36;;;;;;;;;;;23.60;41.20;;;;;;5071168;28;19938;-56
2024/02/12 09:04:03;;;;;;;;;;;23.70;41.30;;;;;;5065036;28;19932;-58
2024/02/12 09:06:32;;;;;;;;;;;23.70;41.30;;;;;;5063890;28;19978;-58
2024/02/12 09:08:58;;;;;;;;;;;23.70;41.30;;;;;;5070003;28;19970;-57
2024/02/12 09:11:26;;;;;;;;;;;23.70;41.20;;;;;;5066502;28;19967;-57
2024/02/12 09:13:53;;;;;;;;;;;23.70;41.20;;;;;;5065313;28;19937;-57
2024/02/12 09:16:21;;;;;;;;;;;23.70;41.10;;;;;;5072503;28;20016;-57
2024/02/12 09:18:48;;;;;;;;;;;23.80;41.00;;;;;;5066068;28;20010;-58
2024/02/12 09:21:15;;;;;;;;;;;23.80;40.90;;;;;;5069439;28;19928;-57
2024/02/12 09:23:42;;;;;;;;;;;23.80;40.90;;;;;;5047624;28;19933;-55
2024/02/12 09:26:10;;;;;;;;;;;23.80;40.80;;;;;;5066995;28;19990;-57
2024/02/12 09:28:38;;;;;;;;;;;23.90;40.80;;;;;;5065628;28;19943;-53
2024/02/12 09:31:05;;;;;;;;;;;23.90;41.40;;;;;;5068977;28;20027;-58
2024/02/12 09:33:34;;;;;;;;;;;23.90;40.90;;;;;;5050056;28;20046;-58
2024/02/12 09:36:01;;;;;;;;;;;23.90;40.80;;;;;;5061784;28;20032;-57
2024/02/12 09:38:28;;;;;;;;;;;23.90;40.70;;;;;;5063682;28;19963;-57
2024/02/12 09:40:57;;;;;;;;;;;23.90;40.60;;;;;;5064804;28;20324;-57
2024/02/12 09:43:25;;;;;;;;;;;24.00;40.60;;;;;;5069674;28;19924;-56
2024/02/12 09:45:54;;;;;;;;;;;24.00;40.50;;;;;;5070615;28;19929;-53
2024/02/12 09:48:21;;;;;;;;;;;24.00;40.50;;;;;;5066628;28;20274;-56
2024/02/12 09:50:49;;;;;;;;;;;24.00;40.50;;;;;;5051163;28;19928;-57
2024/02/12 09:53:20;;;;;;;;;;;24.00;40.50;;;;;;5062528;28;19979;-57
2024/02/12 09:55:47;;;;;;;;;;;24.00;40.40;;;;;;5047160;28;19928;-56
2024/02/12 09:58:21;;;;;;;;;;;24.10;40.40;;;;;;5057077;28;20063;-53
2024/02/12 10:00:48;;;;;;;;;;;24.10;40.40;;;;;;5065432;28;19990;-55
2024/02/12 10:03:15;;;;;;;;;;;24.10;40.40;;;;;;5065984;28;19930;-57
2024/02/12 10:05:43;;;;;;;;;;;24.10;40.90;;;;;;5068160;28;20031;-57
2024/02/12 10:08:18;;;;;;;;;;;24.10;40.30;;;;;;5060612;28;19932;-58
2024/02/12 10:10:45;;;;;;;;;;;24.10;40.80;;;;;;5070077;28;19925;-58
2024/02/12 10:13:12;;;;;;;;;;;24.10;40.20;;;;;;5064654;28;19924;-58
2024/02/12 10:15:39;;;;;;;;;;;24.20;40.10;;;;;;5071864;28;19933;-58
2024/02/12 10:18:12;;;;;;;;;;;24.20;40.10;;;;;;5066544;28;19925;-57
2024/02/12 10:20:39;;;;;;;;;;;24.20;40.10;;;;;;5067108;28;20015;-58
2024/02/12 10:23:10;;;;;;;;;;;24.30;40.10;;;;;;5058219;28;19978;-57
2024/02/12 10:25:43;;;;;;;;;;;24.30;40.00;;;;;;5070182;28;20051;-57
2024/02/12 10:28:13;;;;;;;;;;;24.30;40.40;;;;;;5033351;28;20067;-58
2024/02/12 10:30:44;;;;;;;;;;;24.40;39.80;;;;;;5063781;28;19952;-57
2024/02/12 10:33:12;;;;;;;;;;;24.40;39.60;;;;;;5064424;28;20270;-56
2024/02/12 10:35:41;;;;;;;;;;;24.40;39.60;;;;;;5066896;28;19929;-56
2024/02/12 10:38:10;;;;;;;;;;;24.50;39.70;;;;;;5066904;28;20427;-58
2024/02/12 10:40:57;;;;;;;;;;;24.50;39.70;;;;;;5063974;28;19978;-59
2024/02/12 10:43:26;;;;;;;;;;;24.50;39.60;;;;;;5062629;28;19938;-58
2024/02/12 10:45:53;;;;;;;;;;;24.50;39.60;;;;;;5066278;28;19929;-57
2024/02/12 10:48:20;;;;;;;;;;;24.50;39.50;;;;;;5066062;28;19928;-57
2024/02/12 10:50:49;;;;;;;;;;;24.60;39.60;;;;;;5065166;28;19935;-57
2024/02/12 10:53:19;;;;;;;;;;;24.60;39.50;;;;;;5064460;28;19929;-58
2024/02/12 10:55:46;;;;;;;;;;;24.60;39.40;;;;;;5066146;28;20279;-58
2024/02/12 10:58:14;;;;;;;;;;;24.70;39.40;;;;;;5062741;28;20241;-58
2024/02/12 11:00:51;;;;;;;;;;;24.70;39.40;;;;;;5065447;28;19925;-59
2024/02/12 11:03:34;;;;;;;;;;;24.70;39.30;;;;;;5062757;28;19934;-59
2024/02/12 11:06:04;;;;;;;;;;;24.80;39.20;;;;;;5058783;28;19932;-59
2024/02/12 11:08:34;;;;;;;;;;;24.80;39.20;;;;;;5065111;28;19931;-58
2024/02/12 11:11:03;;;;;;;;;;;24.80;39.20;;;;;;5063878;28;19970;-57
2024/02/12 11:13:36;;;;;;;;;;;24.80;39.30;;;;;;5063004;28;19929;-59
2024/02/12 11:16:12;;;;;;;;;;;24.80;39.20;;;;;;5065787;28;19931;-59
2024/02/12 11:18:39;;;;;;;;;;;24.90;39.10;;;;;;5050568;28;19932;-59
2024/02/12 11:21:08;;;;;;;;;;;24.90;39.10;;;;;;5069880;28;20441;-60
2024/02/12 11:23:35;;;;;;;;;;;24.90;39.00;;;;;;5070143;28;19972;-57
2024/02/12 11:26:05;;;;;;;;;;;24.90;38.90;;;;;;5067525;28;20020;-57
2024/02/12 11:28:32;;;;;;;;;;;24.90;38.80;;;;;;5051252;28;19950;-57
2024/02/12 11:30:59;;;;;;;;;;;25.00;38.80;;;;;;5068230;28;19924;-57
2024/02/12 11:33:27;;;;;;;;;;;25.00;38.70;;;;;;5069318;28;19964;-57
2024/02/12 11:36:11;;;;;;;;;;;25.00;38.90;;;;;;5046389;28;19934;-57
2024/02/12 11:38:49;;;;;;;;;;;25.00;39.20;;;;;;5069258;28;19924;-58
2024/02/12 11:41:16;;;;;;;;;;;25.00;39.50;;;;;;5041862;28;20702;-58
2024/02/12 11:43:45;;;;;;;;;;;25.00;39.60;;;;;;5064646;28;19924;-58
2024/02/12 11:46:15;;;;;;;;;;;25.00;39.60;;;;;;5067815;28;19933;-58
2024/02/12 11:48:43;;;;;;;;;;;25.00;39.50;;;;;;5064407;28;19951;-58
2024/02/12 11:51:16;;;;;;;;;;;25.00;39.20;;;;;;5061525;28;19925;-57
2024/02/12 11:53:43;;;;;;;;;;;25.00;39.10;;;;;;5060035;28;20348;-58
2024/02/12 11:56:11;;;;;;;;;;;25.10;39.00;;;;;;5068575;28;20274;-58
2024/02/12 11:58:37;;;;;;;;;;;25.10;38.80;;;;;;5060198;28;20542;-59
2024/02/12 12:01:04;;;;;;;;;;;25.10;38.80;;;;;;5063400;28;19986;-58
2024/02/12 12:03:32;;;;;;;;;;;25.10;38.90;;;;;;5065449;28;19932;-59
2024/02/12 12:05:59;;;;;;;;;;;25.10;39.00;;;;;;5065391;28;19929;-57
2024/02/12 12:08:26;;;;;;;;;;;25.00;39.00;;;;;;5062920;28;19925;-58
2024/02/12 12:11:02;;;;;;;;;;;25.00;38.90;;;;;;5046506;28;20385;-58
2024/02/12 12:13:30;;;;;;;;;;;25.00;39.00;;;;;;5062420;28;19936;-59
2024/02/12 12:15:57;;;;;;;;;;;25.00;39.00;;;;;;5064250;28;19974;-60
2024/02/12 12:18:24;;;;;;;;;;;25.00;38.90;;;;;;5062233;28;19940;-59
2024/02/12 12:20:55;;;;;;;;;;;25.00;38.90;;;;;;5066938;28;19928;-59
2024/02/12 12:23:22;;;;;;;;;;;25.00;38.90;;;;;;5048282;28;19924;-59
2024/02/12 12:25:52;;;;;;;;;;;25.10;39.00;;;;;;5061178;28;19939;-58
2024/02/12 12:28:19;;;;;;;;;;;25.10;38.90;;;;;;5068326;28;19925;-56
2024/02/12 12:30:46;;;;;;;;;;;25.10;39.00;;;;;;5075046;28;20010;-57
2024/02/12 12:33:13;;;;;;;;;;;25.10;38.80;;;;;;5067345;28;19981;-57
2024/02/12 12:35:41;;;;;;;;;;;25.10;38.80;;;;;;5068477;28;20284;-58
2024/02/12 12:38:11;;;;;;;;;;;25.20;38.80;;;;;;5050177;28;19931;-58
2024/02/12 12:40:38;;;;;;;;;;;25.20;38.70;;;;;;5068803;28;20342;-57
2024/02/12 12:43:08;;;;;;;;;;;25.20;38.70;;;;;;5055555;28;19932;-58
2024/02/12 12:45:38;;;;;;;;;;;25.30;38.70;;;;;;5053757;28;19932;-58
2024/02/12 12:48:05;;;;;;;;;;;25.30;38.70;;;;;;5066770;28;20315;-58
2024/02/12 12:50:32;;;;;;;;;;;25.30;39.10;;;;;;5064135;28;20336;-58
2024/02/12 12:52:59;;;;;;;;;;;25.40;38.80;;;;;;5065124;28;19931;-59
2024/02/12 12:55:26;;;;;;;;;;;25.40;38.60;;;;;;5062994;28;20389;-59
2024/02/12 12:57:53;;;;;;;;;;;25.40;38.50;;;;;;5062023;28;19925;-57
2024/02/12 13:00:26;;;;;;;;;;;25.40;38.30;;;;;;5063149;28;19925;-58
2024/02/12 13:02:53;;;;;;;;;;;25.50;38.30;;;;;;5066909;28;19924;-58
2024/02/12 13:05:23;;;;;;;;;;;25.50;38.20;;;;;;5068364;28;19928;-57
2024/02/12 13:07:51;;;;;;;;;;;25.50;38.10;;;;;;5068456;28;19924;-58
2024/02/12 13:10:41;;;;;;;;;;;25.50;38.10;;;;;;5069859;28;20389;-58
2024/02/12 13:13:11;;;;;;;;;;;25.50;38.10;;;;;;5068529;28;19970;-58
2024/02/12 13:15:42;;;;;;;;;;;25.50;38.10;;;;;;5066376;28;19952;-58
2024/02/12 13:18:12;;;;;;;;;;;25.50;38.10;;;;;;5064781;28;19932;-57
2024/02/12 13:20:42;;;;;;;;;;;25.50;38.10;;;;;;5067779;28;20329;-57
2024/02/12 13:23:10;;;;;;;;;;;25.50;38.30;;;;;;5066576;28;19991;-57
2024/02/12 13:25:37;;;;;;;;;;;25.50;38.40;;;;;;5050362;28;19998;-58
2024/02/12 13:28:09;;;;;;;;;;;25.50;38.30;;;;;;5062926;28;20013;-57
2024/02/12 13:30:37;;;;;;;;;;;25.50;38.40;;;;;;5064577;28;19925;-58
2024/02/12 13:33:08;;;;;;;;;;;25.60;38.40;;;;;;5062503;28;19980;-57
2024/02/12 13:35:37;;;;;;;;;;;25.60;38.40;;;;;;5068242;28;19925;-58
2024/02/12 13:38:06;;;;;;;;;;;25.60;38.40;;;;;;5068263;28;19924;-57
2024/02/12 13:40:34;;;;;;;;;;;25.70;38.50;;;;;;5066644;28;20015;-58
2024/02/12 13:43:03;;;;;;;;;;;25.70;38.50;;;;;;5062202;28;19999;-58
2024/02/12 13:45:33;;;;;;;;;;;25.70;38.50;;;;;;5067931;28;19924;-58
2024/02/12 13:48:00;;;;;;;;;;;25.70;38.50;;;;;;5064602;28;19925;-58
2024/02/12 13:50:28;;;;;;;;;;;25.70;38.50;;;;;;5065194;28;19929;-58
2024/02/12 13:52:56;;;;;;;;;;;25.70;38.50;;;;;;5064049;28;19924;-59
2024/02/12 13:55:23;;;;;;;;;;;25.70;38.50;;;;;;5061934;28;20011;-58
2024/02/12 13:57:50;;;;;;;;;;;25.70;38.50;;;;;;5063115;28;19928;-58
2024/02/12 14:00:21;;;;;;;;;;;25.70;38.40;;;;;;5065447;28;19924;-58
2024/02/12 14:03:09;;;;;;;;;;;25.70;38.40;;;;;;5072793;28;20435;-58
2024/02/12 14:05:36;;;;;;;;;;;25.70;38.40;;;;;;5070966;28;20015;-59
2024/02/12 14:08:04;;;;;;;;;;;25.70;38.50;;;;;;5070492;28;19924;-58
2024/02/12 14:10:31;;;;;;;;;;;25.70;38.50;;;;;;5066756;28;19936;-58
2024/02/12 14:12:59;;;;;;;;;;;25.60;38.30;;;;;;5066405;28;20025;-58
2024/02/12 14:15:26;;;;;;;;;;;25.60;38.20;;;;;;5067581;28;20362;-58
2024/02/12 14:18:13;;;;;;;;;;;25.60;37.70;;;;;;5067433;28;20384;-58
2024/02/12 14:20:41;;;;;;;;;;;25.60;37.80;;;;;;5060849;28;19978;-58
2024/02/12 14:23:10;;;;;;;;;;;25.50;37.80;;;;;;5067600;28;19928;-58
2024/02/12 14:25:38;;;;;;;;;;;25.50;37.90;;;;;;5065156;28;19925;-59
2024/02/12 14:28:06;;;;;;;;;;;25.50;37.90;;;;;;5062028;28;19933;-59
2024/02/12 14:30:33;;;;;;;;;;;25.40;37.90;;;;;;5070988;28;19981;-58
2024/02/12 14:33:01;;;;;;;;;;;25.40;37.90;;;;;;5057128;28;19928;-59
2024/02/12 14:35:34;;;;;;;;;;;25.40;38.10;;;;;;5068635;28;20046;-59
2024/02/12 14:38:02;;;;;;;;;;;25.40;38.00;;;;;;5071977;28;19998;-59
2024/02/12 14:40:30;;;;;;;;;;;25.40;38.40;;;;;;5064222;28;19932;-58